sensor_id;sensor_type;location;lat;lon;timestamp;P1;durP1;ratioP1;P2;durP2;ratioP2
35606;SDS011;21729;58.392;15.656;2024-02-15T00:01:13;4.45;;;4.05;;
35606;SDS011;21729;58.392;15.656;2024-02-15T00:03:40;4.20;;;3.80;;
35606;SDS011;21729;58.392;15.656;2024-02-15T00:06:07;4.60;;;4.20;;
35606;SDS011;21729;58.392;15.656;2024-02-15T00:08:34;4.80;;;4.28;;
35606;SDS011;21729;58.392;15.656;2024-02-15T00:11:02;4.47;;;4.03;;
35606;SDS011;21729;58.392;15.656;2024-02-15T00:13:30;4.25;;;3.85;;
35606;SDS011;21729;58.392;15.656;2024-02-15T00:15:58;4.85;;;4.35;;
35606;SDS011;21729;58.392;15.656;2024-02-15T00:18:26;4.53;;;4.13;;
35606;SDS011;21729;58.392;15.656;2024-02-15T00:20:53;4.72;;;4.20;;
35606;SDS011;21729;58.392;15.656;2024-02-15T00:23:20;4.43;;;4.03;;
35606;SDS011;21729;58.392;15.656;2024-02-15T00:25:47;4.95;;;4.13;;
35606;SDS011;21729;58.392;15.656;2024-02-15T00:28:16;4.47;;;4.00;;
35606;SDS011;21729;58.392;15.656;2024-02-15T00:30:43;4.60;;;4.00;;
35606;SDS011;21729;58.392;15.656;2024-02-15T00:33:10;4.83;;;4.13;;
35606;SDS011;21729;58.392;15.656;2024-02-15T00:35:37;4.43;;;4.03;;
35606;SDS011;21729;58.392;15.656;2024-02-15T00:38:04;4.37;;;3.97;;
35606;SDS011;21729;58.392;15.656;2024-02-15T00:40:32;4.43;;;4.00;;
35606;SDS011;21729;58.392;15.656;2024-02-15T00:42:59;4.40;;;4.00;;
35606;SDS011;21729;58.392;15.656;2024-02-15T00:45:28;4.38;;;3.97;;
35606;SDS011;21729;58.392;15.656;2024-02-15T00:47:55;4.32;;;3.92;;
35606;SDS011;21729;58.392;15.656;2024-02-15T00:50:22;4.40;;;4.00;;
35606;SDS011;21729;58.392;15.656;2024-02-15T00:52:49;4.60;;;4.00;;
35606;SDS011;21729;58.392;15.656;2024-02-15T00:55:16;4.78;;;4.00;;
35606;SDS011;21729;58.392;15.656;2024-02-15T00:57:44;4.40;;;4.00;;
35606;SDS011;21729;58.392;15.656;2024-02-15T01:00:11;4.38;;;3.97;;
35606;SDS011;21729;58.392;15.656;2024-02-15T01:02:41;4.28;;;3.88;;
35606;SDS011;21729;58.392;15.656;2024-02-15T01:05:08;4.20;;;3.80;;
35606;SDS011;21729;58.392;15.656;2024-02-15T01:07:35;4.45;;;4.00;;
35606;SDS011;21729;58.392;15.656;2024-02-15T01:10:02;5.00;;;4.05;;
35606;SDS011;21729;58.392;15.656;2024-02-15T01:12:31;4.15;;;3.75;;
35606;SDS011;21729;58.392;15.656;2024-02-15T01:14:58;4.60;;;4.00;;
35606;SDS011;21729;58.392;15.656;2024-02-15T01:17:25;4.30;;;3.85;;
35606;SDS011;21729;58.392;15.656;2024-02-15T01:19:53;4.43;;;3.95;;
35606;SDS011;21729;58.392;15.656;2024-02-15T01:22:20;4.75;;;4.25;;
35606;SDS011;21729;58.392;15.656;2024-02-15T01:24:52;4.53;;;4.00;;
35606;SDS011;21729;58.392;15.656;2024-02-15T01:27:19;4.90;;;4.37;;
35606;SDS011;21729;58.392;15.656;2024-02-15T01:29:46;4.50;;;4.03;;
35606;SDS011;21729;58.392;15.656;2024-02-15T01:32:13;4.57;;;3.90;;
35606;SDS011;21729;58.392;15.656;2024-02-15T01:34:40;4.47;;;3.80;;
35606;SDS011;21729;58.392;15.656;2024-02-15T01:37:08;4.40;;;4.00;;
35606;SDS011;21729;58.392;15.656;2024-02-15T01:39:35;4.43;;;4.03;;
35606;SDS011;21729;58.392;15.656;2024-02-15T01:42:03;4.30;;;3.88;;
35606;SDS011;21729;58.392;15.656;2024-02-15T01:44:30;4.40;;;4.00;;
35606;SDS011;21729;58.392;15.656;2024-02-15T01:46:57;4.57;;;4.13;;
35606;SDS011;21729;58.392;15.656;2024-02-15T01:49:24;4.50;;;4.07;;
35606;SDS011;21729;58.392;15.656;2024-02-15T01:51:53;4.50;;;4.10;;
35606;SDS011;21729;58.392;15.656;2024-02-15T01:54:24;5.35;;;4.60;;
35606;SDS011;21729;58.392;15.656;2024-02-15T01:56:52;4.60;;;4.10;;
35606;SDS011;21729;58.392;15.656;2024-02-15T01:59:21;5.00;;;4.50;;
35606;SDS011;21729;58.392;15.656;2024-02-15T02:01:49;4.88;;;4.30;;
35606;SDS011;21729;58.392;15.656;2024-02-15T02:04:16;4.45;;;4.05;;
35606;SDS011;21729;58.392;15.656;2024-02-15T02:06:44;4.72;;;4.20;;
35606;SDS011;21729;58.392;15.656;2024-02-15T02:09:11;5.30;;;4.50;;
35606;SDS011;21729;58.392;15.656;2024-02-15T02:11:40;4.97;;;4.47;;
35606;SDS011;21729;58.392;15.656;2024-02-15T02:14:08;4.90;;;4.20;;
35606;SDS011;21729;58.392;15.656;2024-02-15T02:16:36;4.72;;;4.20;;
35606;SDS011;21729;58.392;15.656;2024-02-15T02:19:04;6.45;;;4.80;;
35606;SDS011;21729;58.392;15.656;2024-02-15T02:21:33;4.97;;;4.30;;
35606;SDS011;21729;58.392;15.656;2024-02-15T02:24:02;7.70;;;4.93;;
35606;SDS011;21729;58.392;15.656;2024-02-15T02:26:34;5.57;;;4.55;;
35606;SDS011;21729;58.392;15.656;2024-02-15T02:29:01;6.27;;;4.83;;
35606;SDS011;21729;58.392;15.656;2024-02-15T02:31:32;5.93;;;4.82;;
35606;SDS011;21729;58.392;15.656;2024-02-15T02:33:59;6.28;;;4.75;;
35606;SDS011;21729;58.392;15.656;2024-02-15T02:36:27;5.47;;;4.60;;
35606;SDS011;21729;58.392;15.656;2024-02-15T02:38:54;7.57;;;4.90;;
35606;SDS011;21729;58.392;15.656;2024-02-15T02:41:25;7.43;;;4.43;;
35606;SDS011;21729;58.392;15.656;2024-02-15T02:43:54;6.50;;;4.60;;
35606;SDS011;21729;58.392;15.656;2024-02-15T02:46:22;8.20;;;4.75;;
35606;SDS011;21729;58.392;15.656;2024-02-15T02:48:49;5.70;;;4.78;;
35606;SDS011;21729;58.392;15.656;2024-02-15T02:51:16;6.25;;;4.35;;
35606;SDS011;21729;58.392;15.656;2024-02-15T02:53:43;5.95;;;4.70;;
35606;SDS011;21729;58.392;15.656;2024-02-15T02:56:10;6.93;;;4.45;;
35606;SDS011;21729;58.392;15.656;2024-02-15T02:58:38;6.43;;;4.32;;
35606;SDS011;21729;58.392;15.656;2024-02-15T03:01:08;6.18;;;4.65;;
35606;SDS011;21729;58.392;15.656;2024-02-15T03:03:36;6.00;;;4.70;;
35606;SDS011;21729;58.392;15.656;2024-02-15T03:06:04;6.87;;;4.93;;
35606;SDS011;21729;58.392;15.656;2024-02-15T03:08:31;5.87;;;4.33;;
35606;SDS011;21729;58.392;15.656;2024-02-15T03:10:59;7.45;;;4.75;;
35606;SDS011;21729;58.392;15.656;2024-02-15T03:13:26;8.07;;;4.73;;
35606;SDS011;21729;58.392;15.656;2024-02-15T03:15:53;9.20;;;5.00;;
35606;SDS011;21729;58.392;15.656;2024-02-15T03:18:22;10.27;;;5.10;;
35606;SDS011;21729;58.392;15.656;2024-02-15T03:20:49;10.35;;;5.05;;
35606;SDS011;21729;58.392;15.656;2024-02-15T03:23:16;8.95;;;5.25;;
35606;SDS011;21729;58.392;15.656;2024-02-15T03:25:43;8.63;;;5.07;;
35606;SDS011;21729;58.392;15.656;2024-02-15T03:28:10;9.50;;;5.03;;
35606;SDS011;21729;58.392;15.656;2024-02-15T03:30:37;8.85;;;4.82;;
35606;SDS011;21729;58.392;15.656;2024-02-15T03:33:04;10.15;;;5.50;;
35606;SDS011;21729;58.392;15.656;2024-02-15T03:35:33;10.38;;;5.40;;
35606;SDS011;21729;58.392;15.656;2024-02-15T03:38:00;8.63;;;5.03;;
35606;SDS011;21729;58.392;15.656;2024-02-15T03:40:27;9.13;;;4.93;;
35606;SDS011;21729;58.392;15.656;2024-02-15T03:42:55;12.23;;;5.63;;
35606;SDS011;21729;58.392;15.656;2024-02-15T03:45:22;11.38;;;5.38;;
35606;SDS011;21729;58.392;15.656;2024-02-15T03:47:50;13.73;;;5.30;;
35606;SDS011;21729;58.392;15.656;2024-02-15T03:50:17;10.65;;;5.38;;
35606;SDS011;21729;58.392;15.656;2024-02-15T03:52:48;12.68;;;4.90;;
35606;SDS011;21729;58.392;15.656;2024-02-15T03:55:16;12.70;;;5.80;;
35606;SDS011;21729;58.392;15.656;2024-02-15T03:57:43;10.05;;;5.10;;
35606;SDS011;21729;58.392;15.656;2024-02-15T04:00:11;9.85;;;5.20;;
35606;SDS011;21729;58.392;15.656;2024-02-15T04:02:45;14.55;;;4.85;;
35606;SDS011;21729;58.392;15.656;2024-02-15T04:05:14;10.88;;;4.75;;
35606;SDS011;21729;58.392;15.656;2024-02-15T04:07:43;14.77;;;5.57;;
35606;SDS011;21729;58.392;15.656;2024-02-15T04:10:11;12.90;;;5.10;;
35606;SDS011;21729;58.392;15.656;2024-02-15T04:12:38;9.32;;;4.82;;
35606;SDS011;21729;58.392;15.656;2024-02-15T04:15:07;11.50;;;5.00;;
35606;SDS011;21729;58.392;15.656;2024-02-15T04:17:39;11.88;;;4.90;;
35606;SDS011;21729;58.392;15.656;2024-02-15T04:20:06;13.88;;;5.35;;
35606;SDS011;21729;58.392;15.656;2024-02-15T04:22:36;11.32;;;5.10;;
35606;SDS011;21729;58.392;15.656;2024-02-15T04:25:04;11.40;;;5.40;;
35606;SDS011;21729;58.392;15.656;2024-02-15T04:27:33;10.80;;;5.47;;
35606;SDS011;21729;58.392;15.656;2024-02-15T04:30:00;14.30;;;5.38;;
35606;SDS011;21729;58.392;15.656;2024-02-15T04:32:29;8.20;;;5.28;;
35606;SDS011;21729;58.392;15.656;2024-02-15T04:34:59;13.05;;;5.47;;
35606;SDS011;21729;58.392;15.656;2024-02-15T04:37:27;9.80;;;4.50;;
35606;SDS011;21729;58.392;15.656;2024-02-15T04:39:55;12.30;;;5.28;;
35606;SDS011;21729;58.392;15.656;2024-02-15T04:42:22;13.00;;;5.32;;
35606;SDS011;21729;58.392;15.656;2024-02-15T04:44:54;15.40;;;5.55;;
35606;SDS011;21729;58.392;15.656;2024-02-15T04:47:21;14.73;;;5.67;;
35606;SDS011;21729;58.392;15.656;2024-02-15T04:49:48;11.17;;;5.73;;
35606;SDS011;21729;58.392;15.656;2024-02-15T04:52:15;9.73;;;5.30;;
35606;SDS011;21729;58.392;15.656;2024-02-15T04:54:43;11.80;;;5.43;;
35606;SDS011;21729;58.392;15.656;2024-02-15T04:57:10;11.50;;;4.90;;
35606;SDS011;21729;58.392;15.656;2024-02-15T04:59:37;9.10;;;4.90;;
35606;SDS011;21729;58.392;15.656;2024-02-15T05:02:06;10.77;;;5.20;;
35606;SDS011;21729;58.392;15.656;2024-02-15T05:04:34;14.00;;;5.00;;
35606;SDS011;21729;58.392;15.656;2024-02-15T05:07:01;8.68;;;5.00;;
35606;SDS011;21729;58.392;15.656;2024-02-15T05:09:29;11.33;;;4.97;;
35606;SDS011;21729;58.392;15.656;2024-02-15T05:11:59;9.35;;;5.13;;
35606;SDS011;21729;58.392;15.656;2024-02-15T05:14:27;8.32;;;5.10;;
35606;SDS011;21729;58.392;15.656;2024-02-15T05:16:54;10.52;;;4.80;;
35606;SDS011;21729;58.392;15.656;2024-02-15T05:19:23;9.30;;;4.72;;
35606;SDS011;21729;58.392;15.656;2024-02-15T05:21:50;11.98;;;4.55;;
35606;SDS011;21729;58.392;15.656;2024-02-15T05:24:17;5.85;;;4.53;;
35606;SDS011;21729;58.392;15.656;2024-02-15T05:26:45;7.75;;;4.50;;
35606;SDS011;21729;58.392;15.656;2024-02-15T05:29:13;7.65;;;4.93;;
35606;SDS011;21729;58.392;15.656;2024-02-15T05:31:41;7.07;;;4.63;;
35606;SDS011;21729;58.392;15.656;2024-02-15T05:34:10;6.85;;;4.70;;
35606;SDS011;21729;58.392;15.656;2024-02-15T05:36:39;7.53;;;4.43;;
35606;SDS011;21729;58.392;15.656;2024-02-15T05:39:06;8.45;;;4.70;;
35606;SDS011;21729;58.392;15.656;2024-02-15T05:41:33;6.40;;;4.57;;
35606;SDS011;21729;58.392;15.656;2024-02-15T05:44:00;6.75;;;4.50;;
35606;SDS011;21729;58.392;15.656;2024-02-15T05:46:30;6.03;;;4.10;;
35606;SDS011;21729;58.392;15.656;2024-02-15T05:48:57;7.38;;;4.75;;
35606;SDS011;21729;58.392;15.656;2024-02-15T05:51:24;10.60;;;4.18;;
35606;SDS011;21729;58.392;15.656;2024-02-15T05:53:53;6.07;;;4.35;;
35606;SDS011;21729;58.392;15.656;2024-02-15T05:56:23;10.55;;;4.40;;
35606;SDS011;21729;58.392;15.656;2024-02-15T05:58:51;15.95;;;4.32;;
35606;SDS011;21729;58.392;15.656;2024-02-15T06:01:18;9.73;;;4.20;;
35606;SDS011;21729;58.392;15.656;2024-02-15T06:03:45;10.20;;;4.47;;
35606;SDS011;21729;58.392;15.656;2024-02-15T06:06:13;6.90;;;4.28;;
35606;SDS011;21729;58.392;15.656;2024-02-15T06:08:40;5.82;;;4.28;;
35606;SDS011;21729;58.392;15.656;2024-02-15T06:11:08;9.93;;;5.00;;
35606;SDS011;21729;58.392;15.656;2024-02-15T06:13:35;7.60;;;4.23;;
35606;SDS011;21729;58.392;15.656;2024-02-15T06:16:02;6.93;;;4.72;;
35606;SDS011;21729;58.392;15.656;2024-02-15T06:18:34;13.60;;;5.18;;
35606;SDS011;21729;58.392;15.656;2024-02-15T06:21:02;9.80;;;4.80;;
35606;SDS011;21729;58.392;15.656;2024-02-15T06:23:30;5.43;;;4.65;;
35606;SDS011;21729;58.392;15.656;2024-02-15T06:25:58;8.98;;;4.50;;
35606;SDS011;21729;58.392;15.656;2024-02-15T06:28:30;7.72;;;4.90;;
35606;SDS011;21729;58.392;15.656;2024-02-15T06:31:14;5.45;;;4.50;;
35606;SDS011;21729;58.392;15.656;2024-02-15T06:33:59;6.03;;;4.45;;
35606;SDS011;21729;58.392;15.656;2024-02-15T06:36:45;5.15;;;4.35;;
35606;SDS011;21729;58.392;15.656;2024-02-15T06:39:31;5.75;;;4.15;;
35606;SDS011;21729;58.392;15.656;2024-02-15T06:42:06;8.05;;;4.20;;
35606;SDS011;21729;58.392;15.656;2024-02-15T06:44:34;8.07;;;4.32;;
35606;SDS011;21729;58.392;15.656;2024-02-15T06:47:01;5.33;;;4.17;;
35606;SDS011;21729;58.392;15.656;2024-02-15T06:49:29;6.15;;;4.25;;
35606;SDS011;21729;58.392;15.656;2024-02-15T06:51:56;5.57;;;3.83;;
35606;SDS011;21729;58.392;15.656;2024-02-15T06:54:24;6.13;;;4.30;;
35606;SDS011;21729;58.392;15.656;2024-02-15T06:56:51;5.57;;;4.40;;
35606;SDS011;21729;58.392;15.656;2024-02-15T06:59:19;6.75;;;4.35;;
35606;SDS011;21729;58.392;15.656;2024-02-15T07:01:48;6.32;;;4.30;;
35606;SDS011;21729;58.392;15.656;2024-02-15T07:04:17;8.70;;;4.00;;
35606;SDS011;21729;58.392;15.656;2024-02-15T07:06:44;7.68;;;3.63;;
35606;SDS011;21729;58.392;15.656;2024-02-15T07:09:13;5.72;;;3.90;;
35606;SDS011;21729;58.392;15.656;2024-02-15T07:11:43;4.30;;;3.90;;
35606;SDS011;21729;58.392;15.656;2024-02-15T07:14:11;10.48;;;4.00;;
35606;SDS011;21729;58.392;15.656;2024-02-15T07:16:39;5.23;;;3.70;;
35606;SDS011;21729;58.392;15.656;2024-02-15T07:19:07;5.25;;;3.85;;
35606;SDS011;21729;58.392;15.656;2024-02-15T07:21:35;5.55;;;3.78;;
35606;SDS011;21729;58.392;15.656;2024-02-15T07:24:03;5.10;;;3.35;;
35606;SDS011;21729;58.392;15.656;2024-02-15T07:26:31;8.70;;;3.47;;
35606;SDS011;21729;58.392;15.656;2024-02-15T07:29:00;5.43;;;4.05;;
35606;SDS011;21729;58.392;15.656;2024-02-15T07:31:30;4.55;;;3.38;;
35606;SDS011;21729;58.392;15.656;2024-02-15T07:33:58;6.73;;;3.70;;
35606;SDS011;21729;58.392;15.656;2024-02-15T07:36:26;7.22;;;3.58;;
35606;SDS011;21729;58.392;15.656;2024-02-15T07:38:54;4.07;;;3.30;;
35606;SDS011;21729;58.392;15.656;2024-02-15T07:41:25;4.05;;;3.60;;
35606;SDS011;21729;58.392;15.656;2024-02-15T07:43:53;4.35;;;3.55;;
35606;SDS011;21729;58.392;15.656;2024-02-15T07:46:23;4.22;;;3.67;;
35606;SDS011;21729;58.392;15.656;2024-02-15T07:48:50;4.28;;;3.88;;
35606;SDS011;21729;58.392;15.656;2024-02-15T07:51:17;4.32;;;3.92;;
35606;SDS011;21729;58.392;15.656;2024-02-15T07:53:46;5.18;;;4.50;;
35606;SDS011;21729;58.392;15.656;2024-02-15T07:56:15;5.35;;;4.85;;
35606;SDS011;21729;58.392;15.656;2024-02-15T07:58:42;6.68;;;5.50;;
35606;SDS011;21729;58.392;15.656;2024-02-15T08:01:11;6.65;;;5.65;;
35606;SDS011;21729;58.392;15.656;2024-02-15T08:03:39;6.90;;;5.60;;
35606;SDS011;21729;58.392;15.656;2024-02-15T08:06:09;6.60;;;5.22;;
35606;SDS011;21729;58.392;15.656;2024-02-15T08:08:38;4.85;;;4.35;;
35606;SDS011;21729;58.392;15.656;2024-02-15T08:11:07;4.40;;;4.00;;
35606;SDS011;21729;58.392;15.656;2024-02-15T08:13:40;4.78;;;4.25;;
35606;SDS011;21729;58.392;15.656;2024-02-15T08:16:07;4.20;;;3.80;;
35606;SDS011;21729;58.392;15.656;2024-02-15T08:18:34;4.10;;;3.60;;
35606;SDS011;21729;58.392;15.656;2024-02-15T08:21:02;4.10;;;3.70;;
35606;SDS011;21729;58.392;15.656;2024-02-15T08:23:30;4.82;;;3.63;;
35606;SDS011;21729;58.392;15.656;2024-02-15T08:25:58;4.50;;;4.07;;
35606;SDS011;21729;58.392;15.656;2024-02-15T08:28:26;3.70;;;3.40;;
35606;SDS011;21729;58.392;15.656;2024-02-15T08:30:54;3.50;;;3.20;;
35606;SDS011;21729;58.392;15.656;2024-02-15T08:33:22;4.10;;;3.70;;
35606;SDS011;21729;58.392;15.656;2024-02-15T08:35:49;3.50;;;3.20;;
35606;SDS011;21729;58.392;15.656;2024-02-15T08:38:18;4.00;;;3.60;;
35606;SDS011;21729;58.392;15.656;2024-02-15T08:40:46;3.58;;;3.28;;
35606;SDS011;21729;58.392;15.656;2024-02-15T08:43:13;3.40;;;3.00;;
35606;SDS011;21729;58.392;15.656;2024-02-15T08:45:42;3.28;;;3.00;;
35606;SDS011;21729;58.392;15.656;2024-02-15T08:48:09;3.15;;;2.95;;
35606;SDS011;21729;58.392;15.656;2024-02-15T08:50:36;3.00;;;2.80;;
35606;SDS011;21729;58.392;15.656;2024-02-15T08:53:03;3.30;;;3.00;;
35606;SDS011;21729;58.392;15.656;2024-02-15T08:55:32;3.40;;;3.10;;
35606;SDS011;21729;58.392;15.656;2024-02-15T08:58:00;3.63;;;3.33;;
35606;SDS011;21729;58.392;15.656;2024-02-15T09:00:29;3.33;;;3.05;;
35606;SDS011;21729;58.392;15.656;2024-02-15T09:02:57;3.30;;;3.00;;
35606;SDS011;21729;58.392;15.656;2024-02-15T09:05:24;3.47;;;3.10;;
35606;SDS011;21729;58.392;15.656;2024-02-15T09:07:52;2.88;;;2.67;;
35606;SDS011;21729;58.392;15.656;2024-02-15T09:10:20;3.08;;;2.88;;
35606;SDS011;21729;58.392;15.656;2024-02-15T09:12:48;4.03;;;2.72;;
35606;SDS011;21729;58.392;15.656;2024-02-15T09:15:15;2.70;;;2.50;;
35606;SDS011;21729;58.392;15.656;2024-02-15T09:17:43;2.88;;;2.67;;
35606;SDS011;21729;58.392;15.656;2024-02-15T09:20:12;2.83;;;2.55;;
35606;SDS011;21729;58.392;15.656;2024-02-15T09:22:46;3.45;;;2.70;;
35606;SDS011;21729;58.392;15.656;2024-02-15T09:25:14;3.00;;;2.70;;
35606;SDS011;21729;58.392;15.656;2024-02-15T09:27:42;3.20;;;2.90;;
35606;SDS011;21729;58.392;15.656;2024-02-15T09:30:11;3.30;;;3.00;;
35606;SDS011;21729;58.392;15.656;2024-02-15T09:32:39;3.27;;;2.87;;
35606;SDS011;21729;58.392;15.656;2024-02-15T09:35:07;2.92;;;2.72;;
35606;SDS011;21729;58.392;15.656;2024-02-15T09:37:38;3.00;;;2.72;;
35606;SDS011;21729;58.392;15.656;2024-02-15T09:40:09;2.95;;;2.75;;
35606;SDS011;21729;58.392;15.656;2024-02-15T09:42:37;3.38;;;3.05;;
35606;SDS011;21729;58.392;15.656;2024-02-15T09:45:05;3.50;;;3.15;;
35606;SDS011;21729;58.392;15.656;2024-02-15T09:47:36;3.83;;;3.30;;
35606;SDS011;21729;58.392;15.656;2024-02-15T09:50:05;3.60;;;3.30;;
35606;SDS011;21729;58.392;15.656;2024-02-15T09:52:33;3.35;;;3.05;;
35606;SDS011;21729;58.392;15.656;2024-02-15T09:55:03;3.85;;;3.45;;
35606;SDS011;21729;58.392;15.656;2024-02-15T09:57:35;3.83;;;3.42;;
35606;SDS011;21729;58.392;15.656;2024-02-15T10:00:02;4.68;;;4.03;;
35606;SDS011;21729;58.392;15.656;2024-02-15T10:02:32;4.38;;;3.80;;
35606;SDS011;21729;58.392;15.656;2024-02-15T10:05:03;4.15;;;3.75;;
35606;SDS011;21729;58.392;15.656;2024-02-15T10:07:30;8.70;;;3.90;;
35606;SDS011;21729;58.392;15.656;2024-02-15T10:09:57;4.03;;;3.63;;
35606;SDS011;21729;58.392;15.656;2024-02-15T10:12:44;5.40;;;3.65;;
35606;SDS011;21729;58.392;15.656;2024-02-15T10:15:26;11.95;;;4.15;;
35606;SDS011;21729;58.392;15.656;2024-02-15T10:17:55;10.40;;;5.22;;
35606;SDS011;21729;58.392;15.656;2024-02-15T10:20:23;6.63;;;4.00;;
35606;SDS011;21729;58.392;15.656;2024-02-15T10:22:51;4.55;;;3.88;;
35606;SDS011;21729;58.392;15.656;2024-02-15T10:25:22;4.85;;;4.10;;
35606;SDS011;21729;58.392;15.656;2024-02-15T10:27:52;5.80;;;3.97;;
35606;SDS011;21729;58.392;15.656;2024-02-15T10:30:28;6.63;;;4.30;;
35606;SDS011;21729;58.392;15.656;2024-02-15T10:32:57;7.38;;;4.13;;
35606;SDS011;21729;58.392;15.656;2024-02-15T10:35:24;4.57;;;4.17;;
35606;SDS011;21729;58.392;15.656;2024-02-15T10:37:51;4.25;;;3.85;;
35606;SDS011;21729;58.392;15.656;2024-02-15T10:40:31;5.15;;;4.25;;
35606;SDS011;21729;58.392;15.656;2024-02-15T10:42:58;5.40;;;4.13;;
35606;SDS011;21729;58.392;15.656;2024-02-15T10:45:29;4.97;;;4.47;;
35606;SDS011;21729;58.392;15.656;2024-02-15T10:47:57;6.75;;;5.70;;
35606;SDS011;21729;58.392;15.656;2024-02-15T10:50:24;10.50;;;6.03;;
35606;SDS011;21729;58.392;15.656;2024-02-15T10:52:54;8.77;;;6.03;;
35606;SDS011;21729;58.392;15.656;2024-02-15T10:55:25;7.20;;;5.30;;
35606;SDS011;21729;58.392;15.656;2024-02-15T10:58:04;8.48;;;4.97;;
35606;SDS011;21729;58.392;15.656;2024-02-15T11:00:32;9.18;;;5.15;;
35606;SDS011;21729;58.392;15.656;2024-02-15T11:03:02;7.20;;;5.22;;
35606;SDS011;21729;58.392;15.656;2024-02-15T11:05:32;6.28;;;5.50;;
35606;SDS011;21729;58.392;15.656;2024-02-15T11:08:03;19.45;;;5.35;;
35606;SDS011;21729;58.392;15.656;2024-02-15T11:10:32;21.52;;;5.57;;
35606;SDS011;21729;58.392;15.656;2024-02-15T11:13:02;8.90;;;5.07;;
35606;SDS011;21729;58.392;15.656;2024-02-15T11:15:45;11.43;;;5.18;;
35606;SDS011;21729;58.392;15.656;2024-02-15T11:21:10;13.32;;;4.88;;
35606;SDS011;21729;58.392;15.656;2024-02-15T11:23:37;7.13;;;5.40;;
35606;SDS011;21729;58.392;15.656;2024-02-15T11:26:10;12.40;;;5.28;;
35606;SDS011;21729;58.392;15.656;2024-02-15T11:35:09;26.48;;;6.10;;
35606;SDS011;21729;58.392;15.656;2024-02-15T11:37:53;11.10;;;5.20;;
35606;SDS011;21729;58.392;15.656;2024-02-15T11:40:23;9.88;;;5.30;;
35606;SDS011;21729;58.392;15.656;2024-02-15T11:42:54;8.73;;;5.18;;
35606;SDS011;21729;58.392;15.656;2024-02-15T11:45:24;18.23;;;5.97;;
35606;SDS011;21729;58.392;15.656;2024-02-15T11:47:52;30.00;;;6.13;;
35606;SDS011;21729;58.392;15.656;2024-02-15T11:50:21;10.07;;;5.78;;
35606;SDS011;21729;58.392;15.656;2024-02-15T11:52:49;31.20;;;6.32;;
35606;SDS011;21729;58.392;15.656;2024-02-15T11:55:18;14.85;;;5.65;;
35606;SDS011;21729;58.392;15.656;2024-02-15T11:57:56;9.57;;;5.75;;
35606;SDS011;21729;58.392;15.656;2024-02-15T12:00:30;21.80;;;5.97;;
35606;SDS011;21729;58.392;15.656;2024-02-15T12:03:15;23.95;;;6.00;;
35606;SDS011;21729;58.392;15.656;2024-02-15T12:06:01;16.17;;;7.00;;
35606;SDS011;21729;58.392;15.656;2024-02-15T12:08:46;8.70;;;6.70;;
35606;SDS011;21729;58.392;15.656;2024-02-15T12:11:31;8.60;;;6.63;;
35606;SDS011;21729;58.392;15.656;2024-02-15T12:14:18;10.00;;;6.80;;
35606;SDS011;21729;58.392;15.656;2024-02-15T12:17:03;8.73;;;6.50;;
35606;SDS011;21729;58.392;15.656;2024-02-15T12:19:57;13.27;;;6.70;;
35606;SDS011;21729;58.392;15.656;2024-02-15T12:22:27;11.48;;;6.50;;
35606;SDS011;21729;58.392;15.656;2024-02-15T12:24:59;9.00;;;6.53;;
35606;SDS011;21729;58.392;15.656;2024-02-15T12:27:26;9.30;;;7.10;;
35606;SDS011;21729;58.392;15.656;2024-02-15T12:29:56;19.17;;;7.73;;
35606;SDS011;21729;58.392;15.656;2024-02-15T12:32:24;22.67;;;8.50;;
35606;SDS011;21729;58.392;15.656;2024-02-15T12:34:52;17.13;;;8.50;;
35606;SDS011;21729;58.392;15.656;2024-02-15T12:37:20;19.73;;;9.20;;
35606;SDS011;21729;58.392;15.656;2024-02-15T12:39:48;14.80;;;9.50;;
35606;SDS011;21729;58.392;15.656;2024-02-15T12:42:16;17.63;;;9.75;;
35606;SDS011;21729;58.392;15.656;2024-02-15T12:44:45;21.63;;;10.83;;
35606;SDS011;21729;58.392;15.656;2024-02-15T12:47:24;19.10;;;10.88;;
35606;SDS011;21729;58.392;15.656;2024-02-15T12:49:51;14.40;;;10.50;;
35606;SDS011;21729;58.392;15.656;2024-02-15T12:52:35;14.93;;;10.60;;
35606;SDS011;21729;58.392;15.656;2024-02-15T12:55:07;13.82;;;10.85;;
35606;SDS011;21729;58.392;15.656;2024-02-15T12:57:38;12.63;;;9.23;;
35606;SDS011;21729;58.392;15.656;2024-02-15T13:00:10;12.95;;;9.10;;
35606;SDS011;21729;58.392;15.656;2024-02-15T13:02:44;11.48;;;7.90;;
35606;SDS011;21729;58.392;15.656;2024-02-15T13:05:14;10.48;;;7.97;;
35606;SDS011;21729;58.392;15.656;2024-02-15T13:07:43;9.45;;;7.50;;
35606;SDS011;21729;58.392;15.656;2024-02-15T13:10:10;9.50;;;7.53;;
35606;SDS011;21729;58.392;15.656;2024-02-15T13:12:40;9.87;;;7.60;;
35606;SDS011;21729;58.392;15.656;2024-02-15T13:15:09;10.40;;;7.80;;
35606;SDS011;21729;58.392;15.656;2024-02-15T13:17:40;10.85;;;7.93;;
35606;SDS011;21729;58.392;15.656;2024-02-15T13:20:12;11.83;;;8.20;;
35606;SDS011;21729;58.392;15.656;2024-02-15T13:22:39;10.63;;;8.15;;
35606;SDS011;21729;58.392;15.656;2024-02-15T13:25:06;12.10;;;8.30;;
35606;SDS011;21729;58.392;15.656;2024-02-15T13:27:34;17.08;;;8.48;;
35606;SDS011;21729;58.392;15.656;2024-02-15T13:30:03;16.27;;;9.07;;
35606;SDS011;21729;58.392;15.656;2024-02-15T13:32:33;17.65;;;9.80;;
35606;SDS011;21729;58.392;15.656;2024-02-15T13:35:02;15.93;;;9.25;;
35606;SDS011;21729;58.392;15.656;2024-02-15T13:37:39;19.60;;;9.93;;
35606;SDS011;21729;58.392;15.656;2024-02-15T13:40:09;20.58;;;10.93;;
35606;SDS011;21729;58.392;15.656;2024-02-15T13:42:41;21.23;;;11.77;;
35606;SDS011;21729;58.392;15.656;2024-02-15T13:45:14;18.80;;;12.07;;
35606;SDS011;21729;58.392;15.656;2024-02-15T13:47:43;17.38;;;11.82;;
35606;SDS011;21729;58.392;15.656;2024-02-15T13:50:12;18.27;;;11.63;;
35606;SDS011;21729;58.392;15.656;2024-02-15T13:52:42;20.17;;;11.85;;
35606;SDS011;21729;58.392;15.656;2024-02-15T13:55:10;16.92;;;10.85;;
35606;SDS011;21729;58.392;15.656;2024-02-15T13:57:38;16.00;;;10.25;;
35606;SDS011;21729;58.392;15.656;2024-02-15T14:00:06;14.98;;;10.10;;
35606;SDS011;21729;58.392;15.656;2024-02-15T14:02:38;17.13;;;10.38;;
35606;SDS011;21729;58.392;15.656;2024-02-15T14:05:06;15.07;;;9.98;;
35606;SDS011;21729;58.392;15.656;2024-02-15T14:07:34;15.98;;;10.85;;
35606;SDS011;21729;58.392;15.656;2024-02-15T14:10:03;18.55;;;15.45;;
35606;SDS011;21729;58.392;15.656;2024-02-15T14:12:31;19.67;;;11.30;;
35606;SDS011;21729;58.392;15.656;2024-02-15T14:14:58;24.58;;;11.07;;
35606;SDS011;21729;58.392;15.656;2024-02-15T14:17:25;17.63;;;10.82;;
35606;SDS011;21729;58.392;15.656;2024-02-15T14:19:53;19.20;;;10.40;;
35606;SDS011;21729;58.392;15.656;2024-02-15T14:22:21;18.02;;;10.18;;
35606;SDS011;21729;58.392;15.656;2024-02-15T14:24:49;19.60;;;10.48;;
35606;SDS011;21729;58.392;15.656;2024-02-15T14:27:17;15.82;;;10.32;;
35606;SDS011;21729;58.392;15.656;2024-02-15T14:29:44;24.58;;;12.25;;
35606;SDS011;21729;58.392;15.656;2024-02-15T14:32:31;21.73;;;12.20;;
35606;SDS011;21729;58.392;15.656;2024-02-15T14:35:16;20.20;;;12.63;;
35606;SDS011;21729;58.392;15.656;2024-02-15T14:37:43;25.13;;;12.52;;
35606;SDS011;21729;58.392;15.656;2024-02-15T14:40:10;29.53;;;12.63;;
35606;SDS011;21729;58.392;15.656;2024-02-15T14:42:41;24.37;;;12.10;;
35606;SDS011;21729;58.392;15.656;2024-02-15T14:45:09;23.02;;;12.10;;
35606;SDS011;21729;58.392;15.656;2024-02-15T14:47:36;23.80;;;12.03;;
35606;SDS011;21729;58.392;15.656;2024-02-15T14:50:04;24.97;;;11.47;;